createdAt,value
2023-02-20T00:01:39.876Z,6.40
2023-02-20T00:04:09.375Z,6.30
2023-02-20T00:06:37.252Z,6.30
2023-02-20T00:09:05.303Z,6.20
2023-02-20T00:11:33.504Z,6.20
2023-02-20T00:14:01.427Z,6.20
2023-02-20T00:16:29.317Z,6.10
2023-02-20T00:18:57.193Z,6.10
2023-02-20T00:21:26.473Z,6.00
2023-02-20T00:23:54.340Z,6.00
2023-02-20T00:26:22.559Z,6.00
2023-02-20T00:28:50.911Z,6.10
2023-02-20T00:31:19.918Z,6.10
2023-02-20T00:33:48.031Z,6.00
2023-02-20T00:36:19.105Z,6.00
2023-02-20T00:38:48.626Z,6.00
2023-02-20T00:41:17.671Z,6.10
2023-02-20T00:43:45.663Z,6.10
2023-02-20T00:46:14.562Z,6.20
2023-02-20T00:48:43.926Z,6.20
2023-02-20T00:51:31.443Z,6.20
2023-02-20T00:54:00.744Z,6.30
2023-02-20T00:56:28.798Z,6.30
2023-02-20T00:58:58.074Z,6.40
2023-02-20T01:01:27.365Z,6.40
2023-02-20T01:03:55.687Z,6.40
2023-02-20T01:06:23.608Z,6.50
2023-02-20T01:08:52.350Z,6.50
2023-02-20T01:11:24.232Z,6.50
2023-02-20T01:13:53.799Z,6.50
2023-02-20T01:16:22.745Z,6.60
2023-02-20T01:18:52.264Z,6.60
2023-02-20T01:21:20.435Z,6.60
2023-02-20T01:23:49.945Z,6.70
2023-02-20T01:26:17.824Z,6.70
2023-02-20T01:28:49.174Z,6.70
2023-02-20T01:31:17.248Z,7.00
2023-02-20T01:33:45.480Z,6.80
2023-02-20T01:36:14.125Z,6.80
2023-02-20T01:38:43.564Z,6.80
2023-02-20T01:41:13.102Z,7.70
2023-02-20T01:43:41.361Z,6.80
2023-02-20T01:46:49.420Z,6.90
2023-02-20T01:49:26.554Z,6.90
2023-02-20T01:52:03.917Z,6.90
2023-02-20T01:54:33.383Z,6.90
2023-02-20T01:57:06.156Z,6.90
2023-02-20T01:59:42.465Z,6.90
2023-02-20T02:02:13.106Z,7.00
2023-02-20T02:04:45.052Z,7.00
2023-02-20T02:07:15.241Z,7.00
2023-02-20T02:09:52.508Z,6.90
2023-02-20T02:12:20.868Z,6.90
2023-02-20T02:14:49.190Z,7.00
2023-02-20T02:18:04.304Z,7.00
2023-02-20T02:21:37.932Z,7.00
2023-02-20T02:25:02.690Z,7.00
2023-02-20T02:28:32.052Z,7.00
2023-02-20T02:31:43.699Z,6.90
2023-02-20T02:35:08.047Z,6.90
2023-02-20T02:37:50.974Z,6.90
2023-02-20T02:40:34.166Z,6.90
2023-02-20T02:43:14.590Z,6.90
2023-02-20T02:45:54.347Z,6.80
2023-02-20T02:48:33.985Z,6.90
2023-02-20T02:51:10.175Z,6.80
2023-02-20T02:53:39.392Z,6.70
2023-02-20T02:59:01.904Z,6.60
2023-02-20T03:01:36.382Z,6.60
2023-02-20T03:04:08.587Z,6.50
2023-02-20T03:06:43.361Z,6.50
2023-02-20T03:09:18.518Z,6.50
2023-02-20T03:11:48.300Z,6.40
2023-02-20T03:14:47.667Z,6.40
2023-02-20T03:17:28.756Z,6.40
2023-02-20T03:20:02.075Z,6.40
2023-02-20T03:22:40.657Z,6.40
2023-02-20T03:25:22.809Z,6.40
2023-02-20T03:28:00.226Z,6.30
2023-02-20T03:30:46.619Z,6.30
2023-02-20T03:33:37.754Z,6.30
2023-02-20T03:36:29.407Z,6.30
2023-02-20T03:39:22.188Z,6.30
2023-02-20T03:42:09.812Z,6.30
2023-02-20T03:44:45.832Z,6.30
2023-02-20T03:47:21.400Z,6.30
2023-02-20T03:49:54.498Z,6.20
2023-02-20T03:52:24.825Z,6.30
2023-02-20T03:54:53.996Z,6.30
2023-02-20T03:57:29.560Z,6.40
2023-02-20T04:00:03.957Z,6.50
2023-02-20T04:02:48.606Z,6.50
2023-02-20T04:05:26.166Z,6.50
2023-02-20T04:08:01.069Z,6.50
2023-02-20T04:10:37.304Z,6.50
2023-02-20T04:13:06.708Z,6.50
2023-02-20T04:15:35.239Z,6.60
2023-02-20T04:18:11.667Z,6.60
2023-02-20T04:20:41.483Z,6.50
2023-02-20T04:23:41.107Z,6.60
2023-02-20T04:26:14.947Z,6.60
2023-02-20T04:28:45.908Z,6.60
2023-02-20T04:31:20.558Z,6.60
2023-02-20T04:33:50.897Z,6.60
2023-02-20T04:36:25.486Z,6.60
2023-02-20T04:38:55.975Z,6.60
2023-02-20T04:41:27.394Z,6.60
2023-02-20T04:44:15.943Z,6.60
2023-02-20T04:46:45.754Z,6.70
2023-02-20T04:49:16.492Z,6.60
2023-02-20T04:51:49.562Z,6.70
2023-02-20T04:54:17.487Z,6.70
2023-02-20T04:56:45.720Z,6.70
2023-02-20T04:59:13.936Z,6.70
2023-02-20T05:01:43.068Z,6.70
2023-02-20T05:04:10.993Z,6.70
2023-02-20T05:06:44.704Z,6.70
2023-02-20T05:09:12.792Z,6.60
2023-02-20T05:11:41.144Z,6.70
2023-02-20T05:14:09.179Z,6.70
2023-02-20T05:16:38.699Z,6.70
2023-02-20T05:19:10.370Z,6.70
2023-02-20T05:21:56.124Z,6.60
2023-02-20T05:24:25.377Z,6.60
2023-02-20T05:26:54.295Z,6.60
2023-02-20T05:29:22.457Z,6.60
2023-02-20T05:31:50.602Z,6.60
2023-02-20T05:34:21.239Z,6.60
2023-02-20T05:36:49.223Z,6.60
2023-02-20T05:39:17.088Z,6.60
2023-02-20T05:41:46.717Z,6.50
2023-02-20T05:44:17.724Z,6.50
2023-02-20T05:46:45.760Z,6.50
2023-02-20T05:49:14.138Z,6.50
2023-02-20T05:51:42.048Z,6.40
2023-02-20T05:54:10.159Z,6.40
2023-02-20T05:56:42.229Z,6.50
2023-02-20T05:59:12.150Z,6.50
2023-02-20T06:01:40.413Z,6.40
2023-02-20T06:04:08.465Z,6.40
2023-02-20T06:06:38.578Z,6.40
2023-02-20T06:09:10.627Z,6.40
2023-02-20T06:11:40.102Z,6.50
2023-02-20T06:14:09.353Z,6.50
2023-02-20T06:16:38.543Z,6.50
2023-02-20T06:19:07.045Z,6.50
2023-02-20T06:21:35.960Z,6.50
2023-02-20T06:24:04.449Z,6.50
2023-02-20T06:26:32.340Z,6.50
2023-02-20T06:29:00.279Z,6.60
2023-02-20T06:31:29.445Z,6.60
2023-02-20T06:33:58.687Z,6.60
2023-02-20T06:36:30.853Z,6.60
2023-02-20T06:38:59.190Z,6.70
2023-02-20T06:41:27.619Z,6.70
2023-02-20T06:43:55.990Z,6.80
2023-02-20T06:46:24.552Z,6.80
2023-02-20T06:48:56.075Z,6.80
2023-02-20T06:51:27.988Z,6.90
2023-02-20T06:53:56.016Z,6.90
2023-02-20T06:56:27.057Z,7.00
2023-02-20T06:58:56.643Z,6.90
2023-02-20T07:01:28.385Z,6.90
2023-02-20T07:03:59.585Z,7.00
2023-02-20T07:06:28.889Z,7.00
2023-02-20T07:08:56.756Z,7.10
2023-02-20T07:11:25.835Z,7.10
2023-02-20T07:13:54.038Z,7.10
2023-02-20T07:16:21.989Z,7.20
2023-02-20T07:18:49.913Z,7.20
2023-02-20T07:21:18.035Z,7.20
2023-02-20T07:23:48.405Z,7.20
2023-02-20T07:26:20.814Z,7.30
2023-02-20T07:28:48.759Z,7.30
2023-02-20T07:31:16.892Z,7.30
2023-02-20T07:33:45.525Z,7.40
2023-02-20T07:36:15.554Z,7.40
2023-02-20T07:38:44.021Z,7.50
2023-02-20T07:41:17.305Z,7.50
2023-02-20T07:43:45.468Z,7.60
2023-02-20T07:46:14.103Z,7.60
2023-02-20T07:48:42.183Z,7.70
2023-02-20T07:51:10.699Z,7.70
2023-02-20T07:53:38.707Z,7.70
2023-02-20T07:56:07.333Z,7.70
2023-02-20T07:58:37.030Z,7.70
2023-02-20T08:01:05.293Z,7.70
2023-02-20T08:03:33.481Z,7.70
2023-02-20T08:06:01.390Z,7.70
2023-02-20T08:08:29.606Z,7.80
2023-02-20T08:11:08.401Z,7.80
2023-02-20T08:13:39.550Z,7.80
2023-02-20T08:16:07.858Z,7.80
2023-02-20T08:18:35.774Z,7.90
2023-02-20T08:21:04.517Z,7.90
2023-02-20T08:23:32.798Z,8.00
2023-02-20T08:26:01.084Z,8.10
2023-02-20T08:28:29.396Z,8.20
2023-02-20T08:30:59.012Z,8.30
2023-02-20T08:33:27.034Z,8.40
2023-02-20T08:35:55.526Z,8.50
2023-02-20T08:38:29.180Z,8.60
2023-02-20T08:40:57.681Z,8.70
2023-02-20T08:43:28.056Z,8.70
2023-02-20T08:45:58.376Z,8.80
2023-02-20T08:48:26.723Z,9.00
2023-02-20T08:50:54.689Z,9.00
2023-02-20T08:53:23.069Z,9.10
2023-02-20T08:55:51.382Z,9.20
2023-02-20T08:58:21.370Z,9.20
2023-02-20T09:00:49.978Z,9.30
2023-02-20T09:03:19.589Z,9.30
2023-02-20T09:05:47.554Z,9.40
2023-02-20T09:08:15.629Z,9.40
2023-02-20T09:10:43.787Z,9.40
2023-02-20T09:13:12.524Z,9.50
2023-02-20T09:15:40.777Z,9.50
2023-02-20T09:18:13.501Z,9.50
2023-02-20T09:20:43.310Z,9.60
2023-02-20T09:23:12.010Z,9.60
2023-02-20T09:25:39.927Z,9.80
2023-02-20T09:28:08.926Z,9.90
2023-02-20T09:30:36.926Z,9.90
2023-02-20T09:33:05.357Z,10.00
2023-02-20T09:35:33.528Z,10.10
2023-02-20T09:38:02.780Z,10.20
2023-02-20T09:40:32.997Z,10.50
2023-02-20T09:43:29.643Z,10.80
2023-02-20T09:46:10.143Z,10.90
2023-02-20T09:49:01.848Z,10.90
2023-02-20T09:51:34.442Z,11.00
2023-02-20T09:54:10.225Z,11.00
2023-02-20T09:56:42.925Z,11.00
2023-02-20T09:59:17.850Z,10.20
2023-02-20T10:01:54.993Z,11.10
2023-02-20T10:04:29.600Z,11.20
2023-02-20T10:07:13.674Z,11.20
2023-02-20T10:09:44.288Z,11.10
2023-02-20T10:12:27.564Z,11.10
2023-02-20T10:15:14.107Z,11.10
2023-02-20T10:18:00.298Z,11.00
2023-02-20T10:20:38.782Z,11.00
2023-02-20T10:23:19.220Z,11.10
2023-02-20T10:25:54.882Z,11.00
2023-02-20T10:28:23.530Z,11.00
2023-02-20T10:31:01.306Z,10.90
2023-02-20T10:33:38.048Z,11.00
2023-02-20T10:36:17.417Z,11.00
2023-02-20T10:38:53.331Z,11.00
2023-02-20T10:41:31.896Z,11.00
2023-02-20T10:44:10.215Z,11.00
2023-02-20T10:46:50.510Z,11.00
2023-02-20T10:49:30.627Z,11.10
2023-02-20T10:52:03.519Z,11.20
2023-02-20T10:54:42.219Z,11.30
2023-02-20T10:57:19.131Z,11.40
2023-02-20T10:59:55.833Z,11.30
2023-02-20T11:02:28.437Z,11.30
2023-02-20T11:05:04.514Z,11.20
2023-02-20T11:07:32.787Z,11.20
2023-02-20T11:10:01.057Z,11.20
2023-02-20T11:12:36.786Z,11.20
2023-02-20T11:15:11.464Z,11.10
2023-02-20T11:17:42.612Z,11.10
2023-02-20T11:20:42.340Z,11.10
2023-02-20T11:23:11.564Z,11.10
2023-02-20T11:25:41.975Z,11.10
2023-02-20T11:28:22.676Z,11.10
2023-02-20T11:31:02.960Z,11.10
2023-02-20T11:33:35.334Z,11.20
2023-02-20T11:36:17.233Z,11.10
2023-02-20T11:38:47.238Z,11.20
2023-02-20T11:41:29.034Z,11.20
2023-02-20T11:44:26.952Z,11.20
2023-02-20T11:47:24.461Z,11.10
2023-02-20T11:50:20.062Z,11.10
2023-02-20T11:53:04.892Z,11.10
2023-02-20T11:55:33.121Z,11.20
2023-02-20T11:58:01.653Z,11.20
2023-02-20T12:00:48.597Z,11.20
2023-02-20T12:03:24.254Z,11.20
2023-02-20T12:05:53.717Z,11.10
2023-02-20T12:08:48.745Z,11.00
2023-02-20T12:11:20.502Z,11.10
2023-02-20T12:13:52.523Z,11.10
2023-02-20T12:16:38.614Z,11.10
2023-02-20T12:19:19.618Z,11.20
2023-02-20T12:22:02.369Z,11.20
2023-02-20T12:24:56.908Z,11.20
2023-02-20T12:27:50.104Z,11.30
2023-02-20T12:30:37.555Z,11.20
2023-02-20T12:33:48.565Z,11.10
2023-02-20T12:36:30.474Z,11.10
2023-02-20T12:39:07.556Z,11.20
2023-02-20T12:42:02.842Z,11.30
2023-02-20T12:44:49.466Z,11.20
2023-02-20T12:47:28.541Z,11.30
2023-02-20T12:50:19.078Z,11.30
2023-02-20T12:53:04.977Z,11.20
2023-02-20T12:55:47.055Z,11.30
2023-02-20T12:58:29.120Z,11.30
2023-02-20T13:01:02.468Z,11.20
2023-02-20T13:03:45.876Z,11.30
2023-02-20T13:06:41.954Z,11.30
2023-02-20T13:09:22.299Z,11.30
2023-02-20T13:11:56.835Z,11.30
2023-02-20T13:14:41.725Z,11.40
2023-02-20T13:17:29.253Z,11.40
2023-02-20T13:20:07.514Z,11.40
2023-02-20T13:22:37.294Z,11.40
2023-02-20T13:25:39.378Z,11.40
2023-02-20T13:28:30.641Z,11.40
2023-02-20T13:31:15.590Z,11.40
2023-02-20T13:33:45.596Z,11.40
2023-02-20T13:36:43.447Z,11.40
2023-02-20T13:39:44.624Z,11.40
2023-02-20T13:42:33.520Z,11.50
2023-02-20T13:45:02.267Z,11.60
2023-02-20T13:47:38.278Z,11.60
2023-02-20T13:50:34.057Z,11.60
2023-02-20T13:53:07.007Z,11.60
2023-02-20T13:55:37.604Z,11.70
2023-02-20T13:58:16.081Z,11.70
2023-02-20T14:00:51.240Z,11.80
2023-02-20T14:03:24.974Z,11.80
2023-02-20T14:06:11.520Z,11.90
2023-02-20T14:08:43.475Z,11.90
2023-02-20T14:11:16.765Z,12.00
2023-02-20T14:13:48.254Z,12.00
2023-02-20T14:16:31.153Z,12.10
2023-02-20T14:19:01.552Z,12.10
2023-02-20T14:21:31.076Z,12.10
2023-02-20T14:24:17.865Z,12.10
2023-02-20T14:26:48.665Z,12.10
2023-02-20T14:29:24.025Z,12.00
2023-02-20T14:31:53.798Z,12.00
2023-02-20T14:34:35.604Z,12.10
2023-02-20T14:37:17.639Z,12.10
2023-02-20T14:39:58.250Z,12.10
2023-02-20T14:42:28.106Z,12.10
2023-02-20T14:45:02.636Z,11.90
2023-02-20T14:47:31.719Z,11.90
2023-02-20T14:50:16.973Z,12.00
2023-02-20T14:52:45.169Z,11.90
2023-02-20T14:55:19.766Z,11.80
2023-02-20T14:57:50.410Z,11.70
2023-02-20T15:00:35.588Z,11.60
2023-02-20T15:03:24.539Z,11.60
2023-02-20T15:06:03.462Z,11.50
2023-02-20T15:08:35.500Z,11.50
2023-02-20T15:11:09.664Z,11.40
2023-02-20T15:13:43.974Z,11.40
2023-02-20T15:16:19.705Z,11.30
2023-02-20T15:18:50.288Z,11.20
2023-02-20T15:21:34.998Z,11.10
2023-02-20T15:24:35.088Z,11.10
2023-02-20T15:27:12.803Z,11.10
2023-02-20T15:29:43.824Z,11.00
2023-02-20T15:32:33.635Z,10.80
2023-02-20T15:35:01.676Z,10.70
2023-02-20T15:37:39.010Z,10.70
2023-02-20T15:40:24.779Z,10.70
2023-02-20T15:42:56.949Z,10.60
2023-02-20T15:45:29.263Z,10.60
2023-02-20T15:47:59.042Z,10.40
2023-02-20T15:50:27.391Z,10.40
2023-02-20T15:52:58.526Z,10.30
2023-02-20T15:55:27.942Z,10.40
2023-02-20T15:57:58.987Z,10.40
2023-02-20T16:00:32.854Z,10.40
2023-02-20T16:03:02.268Z,10.40
2023-02-20T16:05:30.409Z,10.40
2023-02-20T16:07:59.690Z,10.40
2023-02-20T16:10:28.125Z,10.40
2023-02-20T16:12:59.662Z,10.40
2023-02-20T16:15:29.616Z,10.40
2023-02-20T16:17:57.685Z,10.40
2023-02-20T16:20:29.425Z,10.30
2023-02-20T16:22:57.628Z,10.30
2023-02-20T16:25:25.670Z,10.30
2023-02-20T16:27:57.286Z,10.20
2023-02-20T16:30:34.455Z,10.20
2023-02-20T16:33:04.114Z,10.10
2023-02-20T16:35:32.081Z,10.00
2023-02-20T16:38:01.511Z,9.90
2023-02-20T16:40:29.468Z,9.80
2023-02-20T16:42:57.344Z,9.80
2023-02-20T16:45:25.266Z,9.70
2023-02-20T16:47:56.964Z,9.70
2023-02-20T16:50:29.825Z,9.70
2023-02-20T16:53:01.357Z,9.60
2023-02-20T16:55:33.544Z,9.60
2023-02-20T16:58:01.922Z,9.50
2023-02-20T17:00:38.506Z,9.40
2023-02-20T17:03:13.975Z,9.40
2023-02-20T17:05:41.900Z,9.40
2023-02-20T17:08:09.855Z,9.30
2023-02-20T17:10:37.739Z,9.30
2023-02-20T17:13:05.732Z,9.30
2023-02-20T17:15:34.231Z,9.20
2023-02-20T17:18:03.858Z,9.20
2023-02-20T17:20:33.474Z,9.20
2023-02-20T17:23:05.470Z,9.10
2023-02-20T17:25:35.486Z,9.10
2023-02-20T17:28:03.464Z,9.10
2023-02-20T17:30:31.928Z,9.10
2023-02-20T17:33:00.173Z,9.10
2023-02-20T17:35:28.062Z,9.20
2023-02-20T17:37:57.367Z,9.10
2023-02-20T17:40:26.079Z,9.10
2023-02-20T17:42:53.976Z,9.10
2023-02-20T17:45:22.157Z,9.10
2023-02-20T17:47:50.475Z,9.10
2023-02-20T17:50:18.955Z,9.10
2023-02-20T17:52:47.515Z,9.10
2023-02-20T17:55:20.962Z,9.10
2023-02-20T17:57:48.927Z,9.10
2023-02-20T18:00:19.425Z,9.10
2023-02-20T18:02:47.739Z,9.00
2023-02-20T18:05:15.847Z,9.00
2023-02-20T18:07:43.826Z,9.00
2023-02-20T18:10:11.854Z,9.00
2023-02-20T18:12:42.147Z,9.00
2023-02-20T18:15:11.730Z,9.00
2023-02-20T18:17:39.936Z,9.00
2023-02-20T18:20:08.454Z,9.00
2023-02-20T18:22:36.345Z,9.00
2023-02-20T18:25:04.494Z,9.00
2023-02-20T18:27:32.403Z,9.00
2023-02-20T18:30:01.676Z,9.10
2023-02-20T18:32:29.772Z,9.10
2023-02-20T18:34:57.850Z,9.10
2023-02-20T18:37:25.885Z,9.20
2023-02-20T18:39:53.904Z,9.20
2023-02-20T18:42:22.191Z,8.00
2023-02-20T18:44:50.597Z,9.20
2023-02-20T18:47:19.979Z,9.30
2023-02-20T18:49:49.380Z,9.30
2023-02-20T18:52:19.894Z,9.40
2023-02-20T18:54:47.914Z,9.30
2023-02-20T18:57:15.916Z,9.30
2023-02-20T18:59:45.563Z,9.20
2023-02-20T19:02:14.700Z,9.20
2023-02-20T19:04:44.134Z,9.10
2023-02-20T19:07:12.074Z,9.10
2023-02-20T19:09:39.965Z,9.00
2023-02-20T19:12:08.650Z,9.00
2023-02-20T19:14:37.397Z,9.00
2023-02-20T19:17:07.475Z,9.10
2023-02-20T19:19:35.624Z,9.10
2023-02-20T19:22:05.005Z,9.10
2023-02-20T19:24:32.896Z,9.10
2023-02-20T19:27:00.798Z,9.10
2023-02-20T19:29:29.025Z,9.10
2023-02-20T19:31:57.144Z,9.20
2023-02-20T19:34:25.164Z,9.30
2023-02-20T19:36:53.925Z,9.30
2023-02-20T19:39:24.350Z,9.30
2023-02-20T19:41:52.334Z,9.40
2023-02-20T19:44:23.517Z,9.40
2023-02-20T19:46:53.226Z,9.40
2023-02-20T19:49:22.582Z,9.40
2023-02-20T19:51:53.422Z,9.40
2023-02-20T19:54:27.599Z,9.40
2023-02-20T19:56:59.137Z,9.40
2023-02-20T19:59:27.909Z,9.40
2023-02-20T20:01:58.412Z,9.40
2023-02-20T20:04:30.514Z,9.40
2023-02-20T20:06:59.211Z,9.40
2023-02-20T20:09:36.195Z,9.40
2023-02-20T20:12:28.786Z,9.50
2023-02-20T20:14:57.133Z,9.50
2023-02-20T20:17:25.215Z,9.50
2023-02-20T20:20:01.068Z,9.60
2023-02-20T20:22:31.141Z,9.60
2023-02-20T20:25:00.775Z,9.60
2023-02-20T20:27:29.036Z,9.60
2023-02-20T20:29:57.250Z,9.60
2023-02-20T20:32:25.485Z,9.60
2023-02-20T20:34:55.521Z,9.60
2023-02-20T20:37:25.532Z,9.60
2023-02-20T20:39:54.860Z,9.60
2023-02-20T20:42:26.425Z,9.60
2023-02-20T20:44:57.527Z,9.60
2023-02-20T20:47:27.599Z,9.60
2023-02-20T20:49:55.887Z,9.50
2023-02-20T20:52:24.828Z,9.50
2023-02-20T20:54:55.427Z,9.60
2023-02-20T20:57:28.809Z,9.70
2023-02-20T20:59:59.014Z,9.70
2023-02-20T21:02:29.309Z,9.80
2023-02-20T21:05:09.731Z,9.80
2023-02-20T21:07:38.630Z,9.90
2023-02-20T21:10:08.637Z,9.90
2023-02-20T21:12:38.749Z,9.90
2023-02-20T21:15:09.281Z,9.90
2023-02-20T21:17:37.814Z,9.90
2023-02-20T21:20:08.175Z,10.00
2023-02-20T21:22:36.633Z,10.10
2023-02-20T21:25:05.987Z,10.10
2023-02-20T21:27:33.943Z,10.10
2023-02-20T21:30:06.091Z,10.10
2023-02-20T21:32:34.032Z,10.10
2023-02-20T21:35:02.339Z,10.10
2023-02-20T21:37:30.312Z,10.00
2023-02-20T21:39:58.278Z,10.00
2023-02-20T21:42:43.789Z,10.00
2023-02-20T21:45:13.149Z,10.00
2023-02-20T21:47:41.034Z,10.00
2023-02-20T21:50:09.748Z,10.00
2023-02-20T21:52:37.895Z,10.00
2023-02-20T21:55:12.755Z,9.90
2023-02-20T21:57:40.693Z,9.90
2023-02-20T22:00:12.743Z,9.90
2023-02-20T22:02:40.537Z,9.90
2023-02-20T22:05:09.076Z,9.90
2023-02-20T22:07:54.864Z,9.90
2023-02-20T22:10:40.645Z,9.90
2023-02-20T22:13:25.837Z,9.80
2023-02-20T22:16:12.760Z,9.80
2023-02-20T22:18:58.699Z,9.70
2023-02-20T22:21:44.835Z,9.70
2023-02-20T22:24:38.253Z,9.60
2023-02-20T22:27:24.999Z,9.70
2023-02-20T22:30:10.742Z,9.70
2023-02-20T22:32:58.068Z,9.70
2023-02-20T22:35:43.308Z,9.70
2023-02-20T22:38:28.833Z,9.80
2023-02-20T22:41:14.768Z,9.80
2023-02-20T22:44:00.175Z,9.90
2023-02-20T22:46:45.573Z,9.80
2023-02-20T22:49:32.681Z,9.90
2023-02-20T22:52:18.294Z,9.90
2023-02-20T22:55:05.402Z,10.00
2023-02-20T22:57:51.423Z,10.00
2023-02-20T23:00:36.832Z,10.00
2023-02-20T23:03:22.638Z,10.00
2023-02-20T23:06:18.791Z,10.00
2023-02-20T23:09:04.859Z,10.00
2023-02-20T23:11:53.284Z,10.00
2023-02-20T23:14:39.425Z,10.00
2023-02-20T23:17:35.618Z,10.10
2023-02-20T23:20:26.320Z,10.00
2023-02-20T23:23:13.306Z,10.00
2023-02-20T23:25:59.453Z,10.00
2023-02-20T23:28:45.623Z,10.00
2023-02-20T23:31:32.331Z,10.00
2023-02-20T23:34:18.510Z,10.00
2023-02-20T23:37:05.886Z,10.00
2023-02-20T23:39:53.118Z,10.00
2023-02-20T23:42:40.324Z,10.00
2023-02-20T23:45:28.152Z,10.00
2023-02-20T23:48:14.054Z,10.10
2023-02-20T23:50:59.282Z,10.10
2023-02-20T23:53:44.853Z,10.10
2023-02-20T23:56:32.657Z,10.10
2023-02-20T23:59:18.231Z,10.00
